Hawkins, TX (75765)

5:22 PM CST on December 06, 2016 (GMT -0600)
KTXHOLLY2 | | Change Station

Elev 482 ft 32.73 °N, 95.19 °W | Updated 7 minutes ago

Overcast
Overcast
50.4 °F
Feels Like 50.4 °F
N
0.0
Wind Variable Wind from West

Today
High -- | Low -- °F
--% Chance of Precip.
Yesterday
High -- | Low -- °F
Precip. -- in
Pressure 30.01 in
Visibility 10.0 miles
Clouds Overcast 1600 ft
Dew Point 49 °F
Humidity 94%
Rainfall 0.00 in
Snow Depth Not available.
7:09 AM 5:14 PM
Waxing Crescent, 46% visible
METAR KJXI 062315Z AUTO 00000KT 10SM OVC016 10/08 A3001 RMK AO2 T01020080
Pressure 30.01 in
Visibility 10.0 miles
Clouds Overcast 1600 ft
Dew Point 49 °F
Humidity 94%
Rainfall 0.00 in
Snow Depth Not available.
7:09 AM 5:14 PM
Waxing Crescent, 46% visible
METAR KJXI 062315Z AUTO 00000KT 10SM OVC016 10/08 A3001 RMK AO2 T01020080

10-Day Weather Forecast

Almanac

Astronomy

Dec. 06, 2016 Rise Set
Actual Time
Civil Twilight
Nautical Twilight
Astronomical Twilight
Moon
Length of Visible Light
Length of Day
Tomorrow will be .
, % of the Moon is Illuminated

Today's Extremes

State Highs State Lows

Community

WunderPhotos

Upload Photos

1,956,044 photos uploaded!

WunderBlog® & News

Nearby

Air Quality

  Air Quality AQ Index Pollutant
Not available.

Snow Depth

Station Depth Elevation

Earthquake Activity

City Distance Mag. Time & Date
Minimum magnitude displayed is 2.5.

Coastal Water Temperatures

Place Temperature

Stations

Nearby Weather Stations

Station Location Temp. Windchill Dew Point Humidity Wind Precip. Elev Updated Type
                   

Watches & Warnings

There are currently no watches in effect.